Terminal Aerodrome Forecast
Issued by NWS

Home | Current Version | Previous Version | Text Only | Print | Product List | Glossary On
Versions: 1 2 3 4 5 6 7 8 9 10 11 12 13 14
000
FTUS46 KMFR 031747
TAFLMT
TAF
KLMT 031747Z 0318/0418 VRB03KT P6SM SCT080
     FM032300 30010KT 3SM FU VCTS BKN060CB
     FM040500 VRB03KT P6SM SCT060=

USA.gov is the U.S. government's official web portal to all federal, state and local government web resources and services.